»·PEaware :: N4D KPDX-KPSC

N4D :: KPDX-KPSC

FLIGHT INFORMATION

Flight Status: Arrived
Operator: Privately registered:
United States
More flights under this callsign
Pilot: Alec D. (17934)
Aircraft: BEECH AIRCRAFT SUPER KING AIR COMMUTER
(BE20)
More flights by this aircraft type
Origin: KPDX Portland Intl
United States
Destination: KPSC Tri-Cities
United States
More flights between these airports :: More routes between these airports
Route: +PTLD1 BTG V112 LTJ V520 PSC
File this flight plan on PilotEdge
Remarks:
Altitude:
(Current/Filed)
15,000ft
Speed:
(Current/Filed)
275kts
Departed: 11-Oct-18 10:39 AM
Arrived: 11-Oct-18 11:28 AM
Distance/Time
Traveled:
151nm/0:49
Distance/Time
To Go:
Arrived

Flight Plot

Page will automatically refresh every two minutes.

Flight plan parsing failed; only flown route is shown


Map Options




Map Legend


Flown Route
Filed Route
Departure Airport
Arrival Airport
Navaid (VOR, NDB)
Fix

Horizontal Profiles

Position Reports

Time Latitude Longitude Heading Altitude Ground
Speed
11-Oct-18 10:21 45.587022 -122.584199 208 34ft 0kts
11-Oct-18 10:22 45.587022 -122.584199 208 34ft 0kts
11-Oct-18 10:23 45.587022 -122.584199 208 34ft 0kts
11-Oct-18 10:24 45.587022 -122.584199 208 34ft 0kts
11-Oct-18 10:25 45.587022 -122.584199 208 34ft 0kts
11-Oct-18 10:26 45.587019 -122.584202 208 34ft 0kts
11-Oct-18 10:27 45.587013 -122.584206 208 34ft 0kts
11-Oct-18 10:28 45.587011 -122.584208 208 34ft 0kts
11-Oct-18 10:29 45.587009 -122.584209 208 34ft 0kts
11-Oct-18 10:30 45.587007 -122.584211 208 34ft 0kts
11-Oct-18 10:31 45.587005 -122.584213 208 34ft 0kts
11-Oct-18 10:32 45.587002 -122.584215 208 34ft 0kts
11-Oct-18 10:33 45.587000 -122.584216 208 34ft 0kts
11-Oct-18 10:34 45.586998 -122.584218 208 34ft 0kts
11-Oct-18 10:35 45.586996 -122.584220 208 34ft 0kts
11-Oct-18 10:36 45.586993 -122.584222 208 34ft 0kts
11-Oct-18 10:37 45.588978 -122.583517 97 34ft 13kts
11-Oct-18 10:38 45.585999 -122.575839 119 34ft 25kts
11-Oct-18 10:39 45.583566 -122.569225 46 34ft 3kts
11-Oct-18 10:40 45.583575 -122.569212 45 34ft 0kts
11-Oct-18 10:41 45.585039 -122.570546 298 34ft 49kts
11-Oct-18 10:42 45.601163 -122.611629 299 903ft 163kts
11-Oct-18 10:43 45.624457 -122.671220 298 2914ft 171kts
11-Oct-18 10:44 45.660883 -122.692582 37 5021ft 175kts
11-Oct-18 10:45 45.698939 -122.647490 37 6998ft 182kts
11-Oct-18 10:46 45.736367 -122.598241 62 8749ft 187kts
11-Oct-18 10:47 45.745921 -122.524498 85 10460ft 192kts
11-Oct-18 10:48 45.745501 -122.446084 85 12169ft 199kts
11-Oct-18 10:49 45.744062 -122.366284 84 13870ft 202kts
11-Oct-18 10:50 45.742604 -122.283106 84 14995ft 229kts
11-Oct-18 10:51 45.740607 -122.184817 85 14992ft 257kts
11-Oct-18 10:52 45.738172 -122.080673 86 14994ft 265kts
11-Oct-18 10:53 45.735979 -121.975183 85 14996ft 266kts
11-Oct-18 10:54 45.733666 -121.868957 85 15002ft 266kts
11-Oct-18 10:55 45.731267 -121.763077 86 15008ft 266kts
11-Oct-18 10:56 45.728716 -121.656871 86 15014ft 266kts
11-Oct-18 10:57 45.726092 -121.551176 86 15021ft 266kts
11-Oct-18 10:58 45.723367 -121.445570 86 15026ft 265kts
11-Oct-18 10:59 45.720357 -121.339657 86 15030ft 265kts
11-Oct-18 11:00 45.717363 -121.234325 86 15032ft 265kts
11-Oct-18 11:01 45.714349 -121.129248 86 15033ft 264kts
11-Oct-18 11:02 45.730029 -121.030739 60 15033ft 252kts
11-Oct-18 11:03 45.759365 -120.939493 61 15031ft 253kts
11-Oct-18 11:04 45.787239 -120.846595 62 15030ft 253kts
11-Oct-18 11:05 45.814365 -120.753364 62 15028ft 254kts
11-Oct-18 11:06 45.841307 -120.659857 62 15026ft 254kts
11-Oct-18 11:07 45.868231 -120.565929 62 15025ft 254kts
11-Oct-18 11:08 45.895073 -120.472013 62 15026ft 255kts
11-Oct-18 11:09 45.922271 -120.375964 63 13998ft 265kts
11-Oct-18 11:10 45.950258 -120.276859 63 12397ft 268kts
11-Oct-18 11:11 45.973742 -120.194125 65 11147ft 266kts
11-Oct-18 11:12 46.005223 -120.083439 64 10994ft 251kts
11-Oct-18 11:13 46.027215 -120.005425 65 10989ft 253kts
11-Oct-18 11:14 46.052916 -119.911290 65 10989ft 252kts
11-Oct-18 11:15 46.083236 -119.801455 65 10990ft 252kts
11-Oct-18 11:16 46.104910 -119.723098 65 10992ft 253kts
11-Oct-18 11:17 46.130842 -119.628748 65 10991ft 253kts
11-Oct-18 11:18 46.157571 -119.531715 67 9359ft 260kts
11-Oct-18 11:19 46.183790 -119.435863 68 7562ft 255kts
11-Oct-18 11:20 46.226385 -119.355903 45 6060ft 243kts
11-Oct-18 11:21 46.272626 -119.288530 45 5998ft 234kts
11-Oct-18 11:22 46.319252 -119.220598 45 5587ft 246kts
11-Oct-18 11:23 46.368340 -119.148688 45 3674ft 250kts
11-Oct-18 11:24 46.398621 -119.066913 106 2094ft 230kts
11-Oct-18 11:25 46.363322 -119.004192 145 1900ft 165kts
11-Oct-18 11:26 46.327884 -119.025284 228 1887ft 143kts
11-Oct-18 11:27 46.303953 -119.062667 225 1468ft 117kts
11-Oct-18 11:28 46.282529 -119.094170 225 768ft 104kts
11-Oct-18 11:29 46.263978 -119.121642 225 411ft 55kts
11-Oct-18 11:30 46.262000 -119.123597 138 411ft 0kts
11-Oct-18 11:31 46.260127 -119.120584 80 411ft 10kts
11-Oct-18 11:32 46.261745 -119.114558 67 411ft 17kts
11-Oct-18 11:33 46.263504 -119.107238 152 411ft 9kts
11-Oct-18 11:34 46.263243 -119.105875 67 411ft 0kts
11-Oct-18 11:35 46.263244 -119.105872 67 411ft 0kts
11-Oct-18 11:36 46.263244 -119.105872 67 411ft 0kts
11-Oct-18 11:37 46.263244 -119.105872 67 411ft 0kts
11-Oct-18 11:38 46.263244 -119.105872 67 411ft 0kts
11-Oct-18 11:39 46.263244 -119.105872 67 411ft 0kts
11-Oct-18 11:40 46.263244 -119.105872 67 411ft 0kts
11-Oct-18 11:41 46.263244 -119.105872 67 411ft 0kts
11-Oct-18 11:42 46.263244 -119.105872 67 411ft 0kts
11-Oct-18 11:43 46.263244 -119.105872 67 411ft 0kts
11-Oct-18 11:44 46.263244 -119.105872 67 411ft 0kts
11-Oct-18 11:45 46.263244 -119.105872 67 411ft 0kts

Navigation Log

Ident Type
Flight plan parsing failed, navigation log unavailable